Terminal Aerodrome Forecast
Issued by NWS

Home | Current Version | Previous Version | Text Only | Print | Product List | Glossary On
Versions: 1 2 3 4 5 6 7 8 9 10 11 12 13 14 15 16 17 18 19 20 21 22 23 24 25 26 27 28 29 30 31 32 33 34 35 36 37 38 39 40 41 42 43 44 45 46 47 48 49 50
000
FTUS44 KHGX 102325
TAFIAH
TAF
KIAH 102325Z 1100/1206 17013KT P6SM VCTS SCT050CB BKN150
     FM110100 18006KT P6SM SCT150 SCT250
     FM111500 19007KT P6SM SCT030
     FM112100 14010KT P6SM SCT050 SCT250
     FM120100 17008KT P6SM SCT250=

USA.gov is the U.S. government's official web portal to all federal, state and local government web resources and services.